Main page
METAR-TAF:

METAR-TAF

Airports :

Belgrade, Serbia

Belgrade Nikola Tesla Airport

latitude: 44-49N, longitude: 020-17E, elevation: 96 m

Current weather observation

The report was made 33 minutes ago, at 08:30 UTC
Wind 11 kt from the South/Southeast
Temperature 21°C
Humidity 46%
Pressure 1012 hPa
Visibility 10 km or more
Few clouds at a height of 2700 ft

METAR: LYBE 270830Z 16011KT 9999 FEW027 21/09 Q1012 NOSIG

Time: 11:03 (09:03 UTC)

Forecast

The report was made 4 hours and 3 minutes ago, at 05:00 UTC
Forecast valid from 27 at 06 UTC to 28 at 06 UTC
Wind 9 kt from the South
Visibility 10 km or more
no clouds below 1500 m and no cumulonimbus

TAF: LYBE 270500Z 2706/2806 17009KT CAVOK TX26/2713Z TN17/2804Z

Weather observations and forecasts of more than 4000 airports (METAR and TAF reports).

The available stations are represented by yellow and red dots on the map.

Hover mouse over dot to see the name of the station.

Then click to see weather observations and forecasts.

To change the map : click on the green buttons with a black cross to zoom in, on the green button with a dash to zoom out, or on the green arrows for adjacent maps.


METAR-TAF: